sensor_id;sensor_type;location;lat;lon;timestamp;P1;durP1;ratioP1;P2;durP2;ratioP2
42144;SDS011;27813;43.516;11.890;2022-07-29T03:24:52;7.47;;;4.70;;
42144;SDS011;27813;43.516;11.890;2022-07-29T03:29:18;7.38;;;4.00;;
42144;SDS011;27813;43.516;11.890;2022-07-29T03:33:27;9.90;;;4.70;;
42144;SDS011;27813;43.516;11.890;2022-07-29T03:37:32;8.35;;;4.50;;
42144;SDS011;27813;43.516;11.890;2022-07-29T03:41:37;5.35;;;4.15;;
42144;SDS011;27813;43.516;11.890;2022-07-29T03:45:47;5.18;;;4.00;;
42144;SDS011;27813;43.516;11.890;2022-07-29T03:49:56;5.25;;;4.75;;
42144;SDS011;27813;43.516;11.890;2022-07-29T03:54:05;5.63;;;3.63;;
42144;SDS011;27813;43.516;11.890;2022-07-29T03:58:12;5.15;;;4.00;;
42144;SDS011;27813;43.516;11.890;2022-07-29T04:02:17;7.07;;;3.53;;
42144;SDS011;27813;43.516;11.890;2022-07-29T04:06:26;6.45;;;4.45;;
42144;SDS011;27813;43.516;11.890;2022-07-29T04:10:31;6.20;;;4.00;;
42144;SDS011;27813;43.516;11.890;2022-07-29T04:14:37;5.13;;;3.88;;
42144;SDS011;27813;43.516;11.890;2022-07-29T04:18:42;5.13;;;4.57;;
42144;SDS011;27813;43.516;11.890;2022-07-29T04:22:47;5.80;;;4.43;;
42144;SDS011;27813;43.516;11.890;2022-07-29T04:26:51;5.10;;;4.18;;
42144;SDS011;27813;43.516;11.890;2022-07-29T04:30:56;6.32;;;4.13;;
42144;SDS011;27813;43.516;11.890;2022-07-29T04:35:00;7.25;;;4.25;;
42144;SDS011;27813;43.516;11.890;2022-07-29T04:39:04;5.18;;;3.95;;
42144;SDS011;27813;43.516;11.890;2022-07-29T04:43:09;5.78;;;3.83;;
42144;SDS011;27813;43.516;11.890;2022-07-29T04:47:18;4.72;;;4.13;;
42144;SDS011;27813;43.516;11.890;2022-07-29T04:51:22;7.28;;;4.90;;
42144;SDS011;27813;43.516;11.890;2022-07-29T04:55:26;6.00;;;4.45;;
42144;SDS011;27813;43.516;11.890;2022-07-29T04:59:30;6.82;;;4.00;;
42144;SDS011;27813;43.516;11.890;2022-07-29T05:03:34;8.52;;;3.92;;
42144;SDS011;27813;43.516;11.890;2022-07-29T05:07:39;5.90;;;3.95;;
42144;SDS011;27813;43.516;11.890;2022-07-29T05:11:43;4.93;;;3.70;;
42144;SDS011;27813;43.516;11.890;2022-07-29T05:15:47;6.05;;;3.50;;
42144;SDS011;27813;43.516;11.890;2022-07-29T05:19:51;5.00;;;3.95;;
42144;SDS011;27813;43.516;11.890;2022-07-29T05:23:56;4.05;;;3.50;;
42144;SDS011;27813;43.516;11.890;2022-07-29T05:28:00;8.38;;;4.22;;
42144;SDS011;27813;43.516;11.890;2022-07-29T05:32:04;4.70;;;3.45;;
42144;SDS011;27813;43.516;11.890;2022-07-29T05:36:09;3.90;;;3.45;;
42144;SDS011;27813;43.516;11.890;2022-07-29T05:40:15;3.95;;;3.40;;
42144;SDS011;27813;43.516;11.890;2022-07-29T05:44:19;7.07;;;3.33;;
42144;SDS011;27813;43.516;11.890;2022-07-29T05:48:27;5.35;;;3.33;;
42144;SDS011;27813;43.516;11.890;2022-07-29T05:52:31;3.88;;;3.20;;
42144;SDS011;27813;43.516;11.890;2022-07-29T05:56:36;7.35;;;3.25;;
42144;SDS011;27813;43.516;11.890;2022-07-29T06:00:42;4.03;;;3.05;;
42144;SDS011;27813;43.516;11.890;2022-07-29T06:04:46;3.85;;;3.45;;
42144;SDS011;27813;43.516;11.890;2022-07-29T06:08:51;5.22;;;3.45;;
42144;SDS011;27813;43.516;11.890;2022-07-29T06:12:56;4.35;;;2.70;;
42144;SDS011;27813;43.516;11.890;2022-07-29T06:17:01;3.63;;;3.15;;
42144;SDS011;27813;43.516;11.890;2022-07-29T06:21:07;6.97;;;3.08;;
42144;SDS011;27813;43.516;11.890;2022-07-29T06:25:18;4.57;;;3.05;;
42144;SDS011;27813;43.516;11.890;2022-07-29T06:29:22;4.07;;;3.20;;
42144;SDS011;27813;43.516;11.890;2022-07-29T06:33:26;3.50;;;3.20;;
42144;SDS011;27813;43.516;11.890;2022-07-29T06:37:32;3.67;;;2.80;;
42144;SDS011;27813;43.516;11.890;2022-07-29T06:41:39;4.40;;;3.35;;
42144;SDS011;27813;43.516;11.890;2022-07-29T06:45:48;5.38;;;3.58;;
42144;SDS011;27813;43.516;11.890;2022-07-29T06:49:52;5.38;;;3.70;;
42144;SDS011;27813;43.516;11.890;2022-07-29T06:53:57;5.85;;;3.78;;
42144;SDS011;27813;43.516;11.890;2022-07-29T06:58:05;4.65;;;3.42;;
42144;SDS011;27813;43.516;11.890;2022-07-29T07:02:12;5.72;;;4.10;;
42144;SDS011;27813;43.516;11.890;2022-07-29T07:06:17;7.20;;;3.42;;
42144;SDS011;27813;43.516;11.890;2022-07-29T07:10:21;6.38;;;3.95;;
42144;SDS011;27813;43.516;11.890;2022-07-29T07:14:26;3.70;;;3.25;;
42144;SDS011;27813;43.516;11.890;2022-07-29T07:18:33;4.18;;;3.20;;
42144;SDS011;27813;43.516;11.890;2022-07-29T07:22:38;5.15;;;3.33;;
42144;SDS011;27813;43.516;11.890;2022-07-29T07:26:42;4.20;;;3.30;;
42144;SDS011;27813;43.516;11.890;2022-07-29T07:30:47;4.00;;;3.30;;
42144;SDS011;27813;43.516;11.890;2022-07-29T07:34:52;4.43;;;3.20;;
42144;SDS011;27813;43.516;11.890;2022-07-29T07:38:58;4.95;;;3.20;;
42144;SDS011;27813;43.516;11.890;2022-07-29T07:43:02;3.40;;;3.10;;
42144;SDS011;27813;43.516;11.890;2022-07-29T07:47:07;3.78;;;3.08;;
42144;SDS011;27813;43.516;11.890;2022-07-29T07:51:14;4.65;;;3.30;;
42144;SDS011;27813;43.516;11.890;2022-07-29T07:55:19;3.78;;;2.80;;
42144;SDS011;27813;43.516;11.890;2022-07-29T07:59:23;4.07;;;3.20;;
42144;SDS011;27813;43.516;11.890;2022-07-29T08:03:28;3.33;;;2.70;;
42144;SDS011;27813;43.516;11.890;2022-07-29T08:07:32;3.92;;;2.97;;
42144;SDS011;27813;43.516;11.890;2022-07-29T08:11:37;3.65;;;2.83;;
42144;SDS011;27813;43.516;11.890;2022-07-29T08:15:54;4.32;;;3.13;;
42144;SDS011;27813;43.516;11.890;2022-07-29T08:20:14;4.70;;;3.17;;
42144;SDS011;27813;43.516;11.890;2022-07-29T08:24:19;3.78;;;3.20;;
42144;SDS011;27813;43.516;11.890;2022-07-29T08:28:44;3.72;;;2.78;;
42144;SDS011;27813;43.516;11.890;2022-07-29T08:32:53;4.32;;;3.25;;
42144;SDS011;27813;43.516;11.890;2022-07-29T08:36:58;3.20;;;2.90;;
42144;SDS011;27813;43.516;11.890;2022-07-29T08:41:03;3.42;;;3.08;;
42144;SDS011;27813;43.516;11.890;2022-07-29T08:45:10;4.53;;;3.00;;
42144;SDS011;27813;43.516;11.890;2022-07-29T08:49:14;3.50;;;3.05;;
42144;SDS011;27813;43.516;11.890;2022-07-29T08:53:19;4.60;;;3.22;;
42144;SDS011;27813;43.516;11.890;2022-07-29T08:57:27;4.35;;;3.38;;
42144;SDS011;27813;43.516;11.890;2022-07-29T09:01:34;4.78;;;3.22;;
42144;SDS011;27813;43.516;11.890;2022-07-29T09:09:51;4.28;;;3.00;;
42144;SDS011;27813;43.516;11.890;2022-07-29T09:13:57;3.35;;;3.05;;
42144;SDS011;27813;43.516;11.890;2022-07-29T09:18:02;3.53;;;3.22;;
42144;SDS011;27813;43.516;11.890;2022-07-29T09:22:06;4.55;;;3.10;;
42144;SDS011;27813;43.516;11.890;2022-07-29T09:26:13;3.55;;;2.80;;
42144;SDS011;27813;43.516;11.890;2022-07-29T09:30:18;5.13;;;3.20;;
42144;SDS011;27813;43.516;11.890;2022-07-29T09:34:33;4.20;;;2.72;;
42144;SDS011;27813;43.516;11.890;2022-07-29T09:38:38;4.40;;;2.72;;
42144;SDS011;27813;43.516;11.890;2022-07-29T09:42:43;4.10;;;2.75;;
42144;SDS011;27813;43.516;11.890;2022-07-29T09:51:19;4.47;;;2.95;;
42144;SDS011;27813;43.516;11.890;2022-07-29T09:55:47;5.32;;;2.92;;
42144;SDS011;27813;43.516;11.890;2022-07-29T09:59:56;4.90;;;3.05;;
42144;SDS011;27813;43.516;11.890;2022-07-29T10:04:02;3.75;;;2.45;;
42144;SDS011;27813;43.516;11.890;2022-07-29T10:08:06;7.20;;;2.72;;
42144;SDS011;27813;43.516;11.890;2022-07-29T10:12:12;2.90;;;2.60;;
42144;SDS011;27813;43.516;11.890;2022-07-29T10:16:17;4.13;;;2.70;;
42144;SDS011;27813;43.516;11.890;2022-07-29T10:20:22;2.92;;;2.38;;
42144;SDS011;27813;43.516;11.890;2022-07-29T10:24:30;3.25;;;2.30;;
42144;SDS011;27813;43.516;11.890;2022-07-29T10:28:36;5.55;;;2.80;;
42144;SDS011;27813;43.516;11.890;2022-07-29T10:37:20;5.75;;;2.10;;
42144;SDS011;27813;43.516;11.890;2022-07-29T10:41:59;5.43;;;2.72;;
42144;SDS011;27813;43.516;11.890;2022-07-29T10:46:17;4.07;;;2.72;;
42144;SDS011;27813;43.516;11.890;2022-07-29T10:50:22;3.70;;;2.30;;
42144;SDS011;27813;43.516;11.890;2022-07-29T11:17:04;2.47;;;1.80;;
42144;SDS011;27813;43.516;11.890;2022-07-29T11:21:09;3.72;;;2.20;;
42144;SDS011;27813;43.516;11.890;2022-07-29T11:35:12;3.27;;;1.87;;
42144;SDS011;27813;43.516;11.890;2022-07-29T11:39:26;4.40;;;2.42;;
42144;SDS011;27813;43.516;11.890;2022-07-29T11:43:48;2.83;;;2.10;;
42144;SDS011;27813;43.516;11.890;2022-07-29T11:47:56;3.70;;;2.47;;
42144;SDS011;27813;43.516;11.890;2022-07-29T11:52:22;2.65;;;2.28;;
42144;SDS011;27813;43.516;11.890;2022-07-29T11:56:34;2.30;;;2.00;;
42144;SDS011;27813;43.516;11.890;2022-07-29T12:00:46;3.08;;;2.15;;
42144;SDS011;27813;43.516;11.890;2022-07-29T12:04:53;5.45;;;2.65;;
42144;SDS011;27813;43.516;11.890;2022-07-29T12:08:58;2.97;;;2.47;;
42144;SDS011;27813;43.516;11.890;2022-07-29T12:13:04;4.07;;;2.50;;
42144;SDS011;27813;43.516;11.890;2022-07-29T12:17:08;3.10;;;2.47;;
42144;SDS011;27813;43.516;11.890;2022-07-29T12:21:48;5.10;;;2.67;;
42144;SDS011;27813;43.516;11.890;2022-07-29T12:25:59;4.47;;;2.20;;
42144;SDS011;27813;43.516;11.890;2022-07-29T12:30:08;3.05;;;2.17;;
42144;SDS011;27813;43.516;11.890;2022-07-29T12:34:22;3.90;;;2.20;;
42144;SDS011;27813;43.516;11.890;2022-07-29T12:38:32;2.70;;;2.10;;
42144;SDS011;27813;43.516;11.890;2022-07-29T12:42:40;4.40;;;2.10;;
42144;SDS011;27813;43.516;11.890;2022-07-29T12:47:00;4.43;;;2.10;;
42144;SDS011;27813;43.516;11.890;2022-07-29T12:51:06;2.22;;;1.65;;
42144;SDS011;27813;43.516;11.890;2022-07-29T12:55:12;3.20;;;1.92;;
42144;SDS011;27813;43.516;11.890;2022-07-29T12:59:21;5.88;;;2.45;;
42144;SDS011;27813;43.516;11.890;2022-07-29T13:03:48;2.20;;;1.80;;
42144;SDS011;27813;43.516;11.890;2022-07-29T13:08:09;3.15;;;2.03;;
42144;SDS011;27813;43.516;11.890;2022-07-29T13:12:24;2.85;;;1.65;;
42144;SDS011;27813;43.516;11.890;2022-07-29T13:16:28;5.07;;;1.73;;
42144;SDS011;27813;43.516;11.890;2022-07-29T13:20:33;4.18;;;1.88;;
42144;SDS011;27813;43.516;11.890;2022-07-29T13:24:55;6.38;;;1.95;;
42144;SDS011;27813;43.516;11.890;2022-07-29T13:29:02;2.35;;;1.73;;
42144;SDS011;27813;43.516;11.890;2022-07-29T13:33:08;4.20;;;1.80;;
42144;SDS011;27813;43.516;11.890;2022-07-29T13:37:13;2.00;;;1.63;;
42144;SDS011;27813;43.516;11.890;2022-07-29T13:41:17;3.90;;;2.00;;
42144;SDS011;27813;43.516;11.890;2022-07-29T13:45:23;3.08;;;2.17;;
42144;SDS011;27813;43.516;11.890;2022-07-29T13:49:31;2.78;;;1.92;;
42144;SDS011;27813;43.516;11.890;2022-07-29T13:53:35;3.35;;;1.80;;
42144;SDS011;27813;43.516;11.890;2022-07-29T13:57:40;2.10;;;1.55;;
42144;SDS011;27813;43.516;11.890;2022-07-29T14:01:44;3.58;;;1.90;;
42144;SDS011;27813;43.516;11.890;2022-07-29T14:05:49;3.65;;;1.80;;
42144;SDS011;27813;43.516;11.890;2022-07-29T14:09:54;3.10;;;1.60;;
42144;SDS011;27813;43.516;11.890;2022-07-29T14:13:58;3.05;;;1.70;;
42144;SDS011;27813;43.516;11.890;2022-07-29T14:18:03;2.40;;;1.65;;
42144;SDS011;27813;43.516;11.890;2022-07-29T14:22:07;2.83;;;1.73;;
42144;SDS011;27813;43.516;11.890;2022-07-29T14:26:15;3.63;;;1.95;;
42144;SDS011;27813;43.516;11.890;2022-07-29T14:30:23;3.80;;;2.10;;
42144;SDS011;27813;43.516;11.890;2022-07-29T14:34:28;2.92;;;1.50;;
42144;SDS011;27813;43.516;11.890;2022-07-29T14:38:32;3.42;;;1.92;;
42144;SDS011;27813;43.516;11.890;2022-07-29T14:42:37;4.30;;;1.83;;
42144;SDS011;27813;43.516;11.890;2022-07-29T14:46:42;4.88;;;2.03;;
42144;SDS011;27813;43.516;11.890;2022-07-29T14:50:52;7.00;;;2.50;;
42144;SDS011;27813;43.516;11.890;2022-07-29T14:55:00;29.42;;;4.68;;
42144;SDS011;27813;43.516;11.890;2022-07-29T14:59:05;18.02;;;3.60;;
42144;SDS011;27813;43.516;11.890;2022-07-29T15:03:11;4.47;;;2.90;;
42144;SDS011;27813;43.516;11.890;2022-07-29T15:07:26;4.70;;;2.42;;
42144;SDS011;27813;43.516;11.890;2022-07-29T15:11:32;3.40;;;2.17;;
42144;SDS011;27813;43.516;11.890;2022-07-29T15:15:46;5.45;;;2.78;;
42144;SDS011;27813;43.516;11.890;2022-07-29T15:19:52;11.73;;;3.75;;
42144;SDS011;27813;43.516;11.890;2022-07-29T15:24:01;6.13;;;3.63;;
42144;SDS011;27813;43.516;11.890;2022-07-29T15:28:05;4.05;;;3.40;;
42144;SDS011;27813;43.516;11.890;2022-07-29T15:32:11;5.75;;;3.33;;
42144;SDS011;27813;43.516;11.890;2022-07-29T15:36:15;6.70;;;3.35;;
42144;SDS011;27813;43.516;11.890;2022-07-29T15:40:39;3.50;;;3.20;;
42144;SDS011;27813;43.516;11.890;2022-07-29T15:44:45;4.43;;;3.55;;
42144;SDS011;27813;43.516;11.890;2022-07-29T15:48:50;9.07;;;4.43;;
42144;SDS011;27813;43.516;11.890;2022-07-29T15:52:54;5.20;;;3.50;;
42144;SDS011;27813;43.516;11.890;2022-07-29T15:56:59;8.80;;;4.15;;
42144;SDS011;27813;43.516;11.890;2022-07-29T16:01:04;6.30;;;3.78;;
42144;SDS011;27813;43.516;11.890;2022-07-29T16:05:12;5.78;;;3.45;;
42144;SDS011;27813;43.516;11.890;2022-07-29T16:09:20;5.70;;;2.75;;
42144;SDS011;27813;43.516;11.890;2022-07-29T16:13:25;4.40;;;2.70;;
42144;SDS011;27813;43.516;11.890;2022-07-29T16:17:31;4.38;;;3.20;;
42144;SDS011;27813;43.516;11.890;2022-07-29T16:21:37;6.63;;;2.72;;
42144;SDS011;27813;43.516;11.890;2022-07-29T16:25:42;4.15;;;2.42;;
42144;SDS011;27813;43.516;11.890;2022-07-29T16:30:04;3.95;;;2.30;;
42144;SDS011;27813;43.516;11.890;2022-07-29T16:34:13;5.00;;;2.50;;
42144;SDS011;27813;43.516;11.890;2022-07-29T16:38:19;4.90;;;2.50;;
42144;SDS011;27813;43.516;11.890;2022-07-29T16:42:25;4.07;;;2.20;;
42144;SDS011;27813;43.516;11.890;2022-07-29T16:46:49;4.80;;;1.88;;
42144;SDS011;27813;43.516;11.890;2022-07-29T16:50:57;5.28;;;2.50;;
42144;SDS011;27813;43.516;11.890;2022-07-29T16:55:05;6.72;;;3.20;;
42144;SDS011;27813;43.516;11.890;2022-07-29T16:59:11;5.63;;;2.92;;
42144;SDS011;27813;43.516;11.890;2022-07-29T17:03:16;4.65;;;2.42;;
42144;SDS011;27813;43.516;11.890;2022-07-29T17:07:20;6.20;;;3.13;;
42144;SDS011;27813;43.516;11.890;2022-07-29T17:11:25;3.42;;;2.40;;
42144;SDS011;27813;43.516;11.890;2022-07-29T17:15:49;3.90;;;2.58;;
42144;SDS011;27813;43.516;11.890;2022-07-29T17:19:53;5.63;;;3.33;;
42144;SDS011;27813;43.516;11.890;2022-07-29T17:23:59;7.00;;;2.97;;
42144;SDS011;27813;43.516;11.890;2022-07-29T17:28:04;7.60;;;2.80;;
42144;SDS011;27813;43.516;11.890;2022-07-29T17:32:09;5.47;;;3.10;;
42144;SDS011;27813;43.516;11.890;2022-07-29T17:36:14;5.07;;;2.58;;
42144;SDS011;27813;43.516;11.890;2022-07-29T17:40:31;3.40;;;2.38;;
42144;SDS011;27813;43.516;11.890;2022-07-29T17:44:35;4.63;;;2.85;;
42144;SDS011;27813;43.516;11.890;2022-07-29T17:48:40;4.60;;;2.47;;
42144;SDS011;27813;43.516;11.890;2022-07-29T17:52:45;4.63;;;2.17;;
42144;SDS011;27813;43.516;11.890;2022-07-29T17:56:49;5.15;;;2.50;;
42144;SDS011;27813;43.516;11.890;2022-07-29T18:00:53;5.63;;;2.72;;
42144;SDS011;27813;43.516;11.890;2022-07-29T18:04:58;4.13;;;2.50;;
42144;SDS011;27813;43.516;11.890;2022-07-29T18:09:02;4.93;;;2.65;;
42144;SDS011;27813;43.516;11.890;2022-07-29T18:13:08;4.50;;;2.58;;
42144;SDS011;27813;43.516;11.890;2022-07-29T18:17:16;5.40;;;2.72;;
42144;SDS011;27813;43.516;11.890;2022-07-29T18:21:20;4.85;;;2.78;;
42144;SDS011;27813;43.516;11.890;2022-07-29T18:25:46;4.28;;;3.05;;
42144;SDS011;27813;43.516;11.890;2022-07-29T18:29:53;5.03;;;3.20;;
42144;SDS011;27813;43.516;11.890;2022-07-29T18:34:07;3.60;;;3.00;;
42144;SDS011;27813;43.516;11.890;2022-07-29T18:38:11;4.20;;;3.13;;
42144;SDS011;27813;43.516;11.890;2022-07-29T18:42:16;7.95;;;3.40;;
42144;SDS011;27813;43.516;11.890;2022-07-29T18:46:21;3.78;;;3.17;;
42144;SDS011;27813;43.516;11.890;2022-07-29T18:50:28;3.95;;;3.53;;
42144;SDS011;27813;43.516;11.890;2022-07-29T18:54:36;4.60;;;3.30;;
42144;SDS011;27813;43.516;11.890;2022-07-29T18:58:41;4.57;;;2.95;;
42144;SDS011;27813;43.516;11.890;2022-07-29T19:02:48;4.32;;;3.10;;
42144;SDS011;27813;43.516;11.890;2022-07-29T19:06:55;4.28;;;2.72;;
42144;SDS011;27813;43.516;11.890;2022-07-29T19:11:05;8.77;;;3.63;;
42144;SDS011;27813;43.516;11.890;2022-07-29T19:15:12;3.63;;;3.20;;
42144;SDS011;27813;43.516;11.890;2022-07-29T19:19:22;3.65;;;2.95;;
42144;SDS011;27813;43.516;11.890;2022-07-29T19:23:28;3.88;;;3.17;;
42144;SDS011;27813;43.516;11.890;2022-07-29T19:27:54;4.60;;;3.20;;
42144;SDS011;27813;43.516;11.890;2022-07-29T19:31:59;4.55;;;3.13;;
42144;SDS011;27813;43.516;11.890;2022-07-29T19:36:04;4.15;;;3.17;;
42144;SDS011;27813;43.516;11.890;2022-07-29T19:40:10;6.93;;;3.40;;
42144;SDS011;27813;43.516;11.890;2022-07-29T19:44:15;3.50;;;3.00;;
42144;SDS011;27813;43.516;11.890;2022-07-29T19:48:19;4.95;;;3.40;;
42144;SDS011;27813;43.516;11.890;2022-07-29T19:52:24;6.38;;;3.20;;
42144;SDS011;27813;43.516;11.890;2022-07-29T19:56:30;6.00;;;3.65;;
42144;SDS011;27813;43.516;11.890;2022-07-29T20:00:38;4.28;;;3.10;;
42144;SDS011;27813;43.516;11.890;2022-07-29T20:04:46;10.75;;;3.60;;
42144;SDS011;27813;43.516;11.890;2022-07-29T20:08:56;4.70;;;3.13;;
42144;SDS011;27813;43.516;11.890;2022-07-29T20:13:02;3.80;;;3.17;;
42144;SDS011;27813;43.516;11.890;2022-07-29T20:17:10;4.63;;;2.90;;
42144;SDS011;27813;43.516;11.890;2022-07-29T20:21:15;7.05;;;2.85;;
42144;SDS011;27813;43.516;11.890;2022-07-29T20:25:21;4.88;;;3.08;;
42144;SDS011;27813;43.516;11.890;2022-07-29T20:29:28;10.27;;;5.68;;
42144;SDS011;27813;43.516;11.890;2022-07-29T20:33:32;6.68;;;2.90;;
42144;SDS011;27813;43.516;11.890;2022-07-29T20:37:44;5.05;;;2.85;;
42144;SDS011;27813;43.516;11.890;2022-07-29T20:41:59;4.20;;;2.92;;
42144;SDS011;27813;43.516;11.890;2022-07-29T20:46:07;6.35;;;3.63;;
42144;SDS011;27813;43.516;11.890;2022-07-29T20:50:13;7.13;;;2.90;;
42144;SDS011;27813;43.516;11.890;2022-07-29T20:54:19;4.03;;;3.40;;
42144;SDS011;27813;43.516;11.890;2022-07-29T20:58:25;6.07;;;3.45;;
42144;SDS011;27813;43.516;11.890;2022-07-29T21:02:31;8.98;;;3.30;;
42144;SDS011;27813;43.516;11.890;2022-07-29T21:06:36;4.45;;;2.90;;
42144;SDS011;27813;43.516;11.890;2022-07-29T21:10:42;4.20;;;2.45;;
42144;SDS011;27813;43.516;11.890;2022-07-29T21:14:46;6.20;;;3.10;;
42144;SDS011;27813;43.516;11.890;2022-07-29T21:18:52;3.08;;;2.70;;
42144;SDS011;27813;43.516;11.890;2022-07-29T21:22:57;3.70;;;2.78;;
42144;SDS011;27813;43.516;11.890;2022-07-29T21:27:03;6.00;;;3.28;;
42144;SDS011;27813;43.516;11.890;2022-07-29T21:35:31;4.82;;;2.97;;
42144;SDS011;27813;43.516;11.890;2022-07-29T21:39:55;4.88;;;3.20;;
42144;SDS011;27813;43.516;11.890;2022-07-29T21:44:00;7.30;;;3.30;;
42144;SDS011;27813;43.516;11.890;2022-07-29T21:48:05;6.90;;;2.80;;
42144;SDS011;27813;43.516;11.890;2022-07-29T21:52:16;6.75;;;3.00;;
42144;SDS011;27813;43.516;11.890;2022-07-29T21:56:22;6.60;;;2.95;;
42144;SDS011;27813;43.516;11.890;2022-07-29T22:00:30;5.35;;;2.95;;
42144;SDS011;27813;43.516;11.890;2022-07-29T22:04:36;5.78;;;2.78;;
42144;SDS011;27813;43.516;11.890;2022-07-29T22:08:43;4.53;;;2.45;;
42144;SDS011;27813;43.516;11.890;2022-07-29T22:12:49;3.72;;;2.70;;
42144;SDS011;27813;43.516;11.890;2022-07-29T22:16:57;9.38;;;2.78;;
42144;SDS011;27813;43.516;11.890;2022-07-29T22:21:02;3.45;;;2.70;;
42144;SDS011;27813;43.516;11.890;2022-07-29T22:25:07;4.82;;;2.83;;
42144;SDS011;27813;43.516;11.890;2022-07-29T22:29:13;5.18;;;3.13;;
42144;SDS011;27813;43.516;11.890;2022-07-29T22:33:20;3.30;;;3.00;;
42144;SDS011;27813;43.516;11.890;2022-07-29T22:37:28;6.80;;;3.17;;
42144;SDS011;27813;43.516;11.890;2022-07-29T22:41:33;4.35;;;3.30;;
42144;SDS011;27813;43.516;11.890;2022-07-29T22:45:37;3.80;;;2.70;;
42144;SDS011;27813;43.516;11.890;2022-07-29T22:49:41;5.03;;;2.63;;
42144;SDS011;27813;43.516;11.890;2022-07-29T22:53:46;7.78;;;3.05;;
42144;SDS011;27813;43.516;11.890;2022-07-29T22:57:50;11.52;;;3.00;;
42144;SDS011;27813;43.516;11.890;2022-07-29T23:01:54;7.13;;;2.53;;
42144;SDS011;27813;43.516;11.890;2022-07-29T23:05:58;6.80;;;2.97;;
42144;SDS011;27813;43.516;11.890;2022-07-29T23:10:06;4.75;;;2.72;;
42144;SDS011;27813;43.516;11.890;2022-07-29T23:14:11;3.60;;;2.92;;
42144;SDS011;27813;43.516;11.890;2022-07-29T23:18:15;4.18;;;3.08;;
42144;SDS011;27813;43.516;11.890;2022-07-29T23:22:20;2.97;;;2.65;;
42144;SDS011;27813;43.516;11.890;2022-07-29T23:26:25;7.57;;;3.10;;
